CYQA

Muskoka Airport

Muskoka, , Canada
METAR CYQA 221500Z AUTO 05003KT 360V090 9SM 14/12 A2999 RMK CLD MISG SLP160
Observed Flight Rules
May-22 @ 15:00 UTC (23 minutes ago)
Wind Visibility
50° at 3 knots 9 miles
Temperatures Readings
Current 14°C / 57°F
Dewpoint 12°C / 54°F
Humidity 88%
Altimeter 29.99" Hg
Pressure 1016 hPa
Elevation 282
METAR CYQA 221500Z AUTO 05003KT 360V090 9SM 14/12 A2999 RMK CLD MISG SLP160
Observed Flight Rules
May-22 @ 15:00 UTC
(23 minutes ago)
Wind Visibility
50° at 3 knots 9 miles
Temperature Dewpoint
14°C / 57°F 12°C / 54°F
Humidity Altimeter Pressure
88% 29.99" Hg 1016 hPa